sensor_id;sensor_type;location;lat;lon;timestamp;temperature;humidity
25550;DHT22;13444;50.562;7.262;2023-01-24T00:00:35;3.70;99.90
25550;DHT22;13444;50.562;7.262;2023-01-24T00:03:00;3.70;99.90
25550;DHT22;13444;50.562;7.262;2023-01-24T00:05:26;3.70;99.90
25550;DHT22;13444;50.562;7.262;2023-01-24T00:07:51;3.70;99.90
25550;DHT22;13444;50.562;7.262;2023-01-24T00:10:17;3.70;99.90
25550;DHT22;13444;50.562;7.262;2023-01-24T00:12:43;3.70;99.90
25550;DHT22;13444;50.562;7.262;2023-01-24T00:15:09;3.70;99.90
25550;DHT22;13444;50.562;7.262;2023-01-24T00:17:34;3.70;99.90
25550;DHT22;13444;50.562;7.262;2023-01-24T00:20:00;3.70;99.90
25550;DHT22;13444;50.562;7.262;2023-01-24T00:22:26;3.70;99.90
25550;DHT22;13444;50.562;7.262;2023-01-24T00:24:51;3.70;99.90
25550;DHT22;13444;50.562;7.262;2023-01-24T00:27:17;3.70;99.90
25550;DHT22;13444;50.562;7.262;2023-01-24T00:29:43;3.70;99.90
25550;DHT22;13444;50.562;7.262;2023-01-24T00:32:09;3.70;99.90
25550;DHT22;13444;50.562;7.262;2023-01-24T00:34:35;3.70;99.90
25550;DHT22;13444;50.562;7.262;2023-01-24T00:37:01;3.70;99.90
25550;DHT22;13444;50.562;7.262;2023-01-24T00:39:26;3.70;99.90
25550;DHT22;13444;50.562;7.262;2023-01-24T00:41:52;3.70;99.90
25550;DHT22;13444;50.562;7.262;2023-01-24T00:44:17;3.70;99.90
25550;DHT22;13444;50.562;7.262;2023-01-24T00:46:43;3.70;99.90
25550;DHT22;13444;50.562;7.262;2023-01-24T00:49:08;3.70;99.90
25550;DHT22;13444;50.562;7.262;2023-01-24T00:51:34;3.70;99.90
25550;DHT22;13444;50.562;7.262;2023-01-24T00:53:59;3.70;99.90
25550;DHT22;13444;50.562;7.262;2023-01-24T00:56:25;3.70;99.90
25550;DHT22;13444;50.562;7.262;2023-01-24T00:58:51;3.70;99.90
25550;DHT22;13444;50.562;7.262;2023-01-24T01:01:16;3.60;99.90
25550;DHT22;13444;50.562;7.262;2023-01-24T01:03:42;3.60;99.90
25550;DHT22;13444;50.562;7.262;2023-01-24T01:06:13;3.60;99.90
25550;DHT22;13444;50.562;7.262;2023-01-24T01:08:38;3.60;99.90
25550;DHT22;13444;50.562;7.262;2023-01-24T01:11:04;3.60;99.90
25550;DHT22;13444;50.562;7.262;2023-01-24T01:13:30;3.60;99.90
25550;DHT22;13444;50.562;7.262;2023-01-24T01:16:11;3.60;99.90
25550;DHT22;13444;50.562;7.262;2023-01-24T01:18:37;3.60;99.90
25550;DHT22;13444;50.562;7.262;2023-01-24T01:21:04;3.60;99.90
25550;DHT22;13444;50.562;7.262;2023-01-24T01:23:30;3.60;99.90
25550;DHT22;13444;50.562;7.262;2023-01-24T01:26:04;3.60;99.90
25550;DHT22;13444;50.562;7.262;2023-01-24T01:28:30;3.60;99.90
25550;DHT22;13444;50.562;7.262;2023-01-24T01:30:56;3.60;99.90
25550;DHT22;13444;50.562;7.262;2023-01-24T01:33:22;3.60;99.90
25550;DHT22;13444;50.562;7.262;2023-01-24T01:35:49;3.60;99.90
25550;DHT22;13444;50.562;7.262;2023-01-24T01:38:16;3.60;99.90
25550;DHT22;13444;50.562;7.262;2023-01-24T01:40:42;3.60;99.90
25550;DHT22;13444;50.562;7.262;2023-01-24T01:43:16;3.60;99.90
25550;DHT22;13444;50.562;7.262;2023-01-24T01:45:44;3.60;99.90
25550;DHT22;13444;50.562;7.262;2023-01-24T01:48:46;3.60;99.90
25550;DHT22;13444;50.562;7.262;2023-01-24T01:51:19;3.60;99.90
25550;DHT22;13444;50.562;7.262;2023-01-24T01:53:51;3.60;99.90
25550;DHT22;13444;50.562;7.262;2023-01-24T01:59:28;3.60;99.90
25550;DHT22;13444;50.562;7.262;2023-01-24T02:01:56;3.60;99.90
25550;DHT22;13444;50.562;7.262;2023-01-24T02:04:31;3.60;99.90
25550;DHT22;13444;50.562;7.262;2023-01-24T02:09:37;3.50;99.90
25550;DHT22;13444;50.562;7.262;2023-01-24T02:12:07;3.50;99.90
25550;DHT22;13444;50.562;7.262;2023-01-24T02:14:36;3.50;99.90
25550;DHT22;13444;50.562;7.262;2023-01-24T02:17:21;3.50;99.90
25550;DHT22;13444;50.562;7.262;2023-01-24T02:20:02;3.50;99.90
25550;DHT22;13444;50.562;7.262;2023-01-24T02:25:17;3.50;99.90
25550;DHT22;13444;50.562;7.262;2023-01-24T02:27:44;3.50;99.90
25550;DHT22;13444;50.562;7.262;2023-01-24T02:30:10;3.50;99.90
25550;DHT22;13444;50.562;7.262;2023-01-24T02:32:35;3.50;99.90
25550;DHT22;13444;50.562;7.262;2023-01-24T02:35:01;3.60;99.90
25550;DHT22;13444;50.562;7.262;2023-01-24T02:37:27;3.50;99.90
25550;DHT22;13444;50.562;7.262;2023-01-24T02:40:07;3.50;99.90
25550;DHT22;13444;50.562;7.262;2023-01-24T02:42:37;3.50;99.90
25550;DHT22;13444;50.562;7.262;2023-01-24T02:45:20;3.50;99.90
25550;DHT22;13444;50.562;7.262;2023-01-24T02:47:49;3.50;99.90
25550;DHT22;13444;50.562;7.262;2023-01-24T02:50:17;3.50;99.90
25550;DHT22;13444;50.562;7.262;2023-01-24T02:52:44;3.50;99.90
25550;DHT22;13444;50.562;7.262;2023-01-24T02:55:28;3.50;99.90
25550;DHT22;13444;50.562;7.262;2023-01-24T02:57:55;3.50;99.90
25550;DHT22;13444;50.562;7.262;2023-01-24T03:00:38;3.40;99.90
25550;DHT22;13444;50.562;7.262;2023-01-24T03:03:04;3.40;99.90
25550;DHT22;13444;50.562;7.262;2023-01-24T03:05:31;3.50;99.90
25550;DHT22;13444;50.562;7.262;2023-01-24T03:08:06;3.40;99.90
25550;DHT22;13444;50.562;7.262;2023-01-24T03:10:31;3.40;99.90
25550;DHT22;13444;50.562;7.262;2023-01-24T03:12:57;3.40;99.90
25550;DHT22;13444;50.562;7.262;2023-01-24T03:15:41;3.40;99.90
25550;DHT22;13444;50.562;7.262;2023-01-24T03:18:25;3.40;99.90
25550;DHT22;13444;50.562;7.262;2023-01-24T03:21:09;3.40;99.90
25550;DHT22;13444;50.562;7.262;2023-01-24T03:23:53;3.40;99.90
25550;DHT22;13444;50.562;7.262;2023-01-24T03:26:37;3.40;99.90
25550;DHT22;13444;50.562;7.262;2023-01-24T03:29:21;3.40;99.90
25550;DHT22;13444;50.562;7.262;2023-01-24T03:32:05;3.40;99.90
25550;DHT22;13444;50.562;7.262;2023-01-24T03:34:50;3.40;99.90
25550;DHT22;13444;50.562;7.262;2023-01-24T03:37:21;3.40;99.90
25550;DHT22;13444;50.562;7.262;2023-01-24T03:40:10;3.40;99.90
25550;DHT22;13444;50.562;7.262;2023-01-24T03:42:36;3.40;99.90
25550;DHT22;13444;50.562;7.262;2023-01-24T03:45:13;3.40;99.90
25550;DHT22;13444;50.562;7.262;2023-01-24T03:47:45;3.40;99.90
25550;DHT22;13444;50.562;7.262;2023-01-24T03:50:20;3.40;99.90
25550;DHT22;13444;50.562;7.262;2023-01-24T03:53:06;3.40;99.90
25550;DHT22;13444;50.562;7.262;2023-01-24T03:55:31;3.40;99.90
25550;DHT22;13444;50.562;7.262;2023-01-24T03:57:57;3.40;99.90
25550;DHT22;13444;50.562;7.262;2023-01-24T04:00:23;3.40;99.90
25550;DHT22;13444;50.562;7.262;2023-01-24T04:02:49;3.40;99.90
25550;DHT22;13444;50.562;7.262;2023-01-24T04:05:14;3.40;99.90
25550;DHT22;13444;50.562;7.262;2023-01-24T04:07:40;3.40;99.90
25550;DHT22;13444;50.562;7.262;2023-01-24T04:10:06;3.40;99.90
25550;DHT22;13444;50.562;7.262;2023-01-24T04:12:32;3.40;99.90
25550;DHT22;13444;50.562;7.262;2023-01-24T04:14:58;3.40;99.90
25550;DHT22;13444;50.562;7.262;2023-01-24T04:17:23;3.40;99.90
25550;DHT22;13444;50.562;7.262;2023-01-24T04:19:49;3.40;99.90
25550;DHT22;13444;50.562;7.262;2023-01-24T04:22:15;3.40;99.90
25550;DHT22;13444;50.562;7.262;2023-01-24T04:24:41;3.40;99.90
25550;DHT22;13444;50.562;7.262;2023-01-24T04:27:07;3.40;99.90
25550;DHT22;13444;50.562;7.262;2023-01-24T04:29:32;3.40;99.90
25550;DHT22;13444;50.562;7.262;2023-01-24T04:31:58;3.40;99.90
25550;DHT22;13444;50.562;7.262;2023-01-24T04:34:23;3.40;99.90
25550;DHT22;13444;50.562;7.262;2023-01-24T04:36:49;3.30;99.90
25550;DHT22;13444;50.562;7.262;2023-01-24T04:39:14;3.40;99.90
25550;DHT22;13444;50.562;7.262;2023-01-24T04:41:40;3.30;99.90
25550;DHT22;13444;50.562;7.262;2023-01-24T04:44:06;3.30;99.90
25550;DHT22;13444;50.562;7.262;2023-01-24T04:46:31;3.30;99.90
25550;DHT22;13444;50.562;7.262;2023-01-24T04:48:57;3.30;99.90
25550;DHT22;13444;50.562;7.262;2023-01-24T04:51:22;3.30;99.90
25550;DHT22;13444;50.562;7.262;2023-01-24T04:53:48;3.30;99.90
25550;DHT22;13444;50.562;7.262;2023-01-24T04:56:14;3.30;99.90
25550;DHT22;13444;50.562;7.262;2023-01-24T04:58:39;3.30;99.90
25550;DHT22;13444;50.562;7.262;2023-01-24T05:01:05;3.30;99.90
25550;DHT22;13444;50.562;7.262;2023-01-24T05:03:30;3.30;99.90
25550;DHT22;13444;50.562;7.262;2023-01-24T05:05:56;3.30;99.90
25550;DHT22;13444;50.562;7.262;2023-01-24T05:08:22;3.30;99.90
25550;DHT22;13444;50.562;7.262;2023-01-24T05:10:47;3.30;99.90
25550;DHT22;13444;50.562;7.262;2023-01-24T05:13:13;3.30;99.90
25550;DHT22;13444;50.562;7.262;2023-01-24T05:15:49;3.30;99.90
25550;DHT22;13444;50.562;7.262;2023-01-24T05:18:15;3.30;99.90
25550;DHT22;13444;50.562;7.262;2023-01-24T05:20:40;3.20;99.90
25550;DHT22;13444;50.562;7.262;2023-01-24T05:23:06;3.20;99.90
25550;DHT22;13444;50.562;7.262;2023-01-24T05:25:31;3.30;99.90
25550;DHT22;13444;50.562;7.262;2023-01-24T05:27:57;3.20;99.90
25550;DHT22;13444;50.562;7.262;2023-01-24T05:30:22;3.30;99.90
25550;DHT22;13444;50.562;7.262;2023-01-24T05:32:48;3.20;99.90
25550;DHT22;13444;50.562;7.262;2023-01-24T05:35:13;3.20;99.90
25550;DHT22;13444;50.562;7.262;2023-01-24T05:37:39;3.20;99.90
25550;DHT22;13444;50.562;7.262;2023-01-24T05:40:06;3.20;99.90
25550;DHT22;13444;50.562;7.262;2023-01-24T05:42:32;3.20;99.90
25550;DHT22;13444;50.562;7.262;2023-01-24T05:44:57;3.20;99.90
25550;DHT22;13444;50.562;7.262;2023-01-24T05:47:23;3.20;99.90
25550;DHT22;13444;50.562;7.262;2023-01-24T05:49:49;3.20;99.90
25550;DHT22;13444;50.562;7.262;2023-01-24T05:52:15;3.20;99.90
25550;DHT22;13444;50.562;7.262;2023-01-24T05:54:50;3.20;99.90
25550;DHT22;13444;50.562;7.262;2023-01-24T05:57:16;3.10;99.90
25550;DHT22;13444;50.562;7.262;2023-01-24T05:59:42;3.10;99.90
25550;DHT22;13444;50.562;7.262;2023-01-24T06:02:08;3.10;99.90
25550;DHT22;13444;50.562;7.262;2023-01-24T06:04:33;3.10;99.90
25550;DHT22;13444;50.562;7.262;2023-01-24T06:06:59;3.10;99.90
25550;DHT22;13444;50.562;7.262;2023-01-24T06:09:24;3.10;99.90
25550;DHT22;13444;50.562;7.262;2023-01-24T06:11:50;3.10;99.90
25550;DHT22;13444;50.562;7.262;2023-01-24T06:14:16;3.10;99.90
25550;DHT22;13444;50.562;7.262;2023-01-24T06:16:46;3.10;99.90
25550;DHT22;13444;50.562;7.262;2023-01-24T06:19:12;3.10;99.90
25550;DHT22;13444;50.562;7.262;2023-01-24T06:24:16;3.10;99.90
25550;DHT22;13444;50.562;7.262;2023-01-24T06:26:42;3.10;99.90
25550;DHT22;13444;50.562;7.262;2023-01-24T06:29:10;3.10;99.90
25550;DHT22;13444;50.562;7.262;2023-01-24T06:39:52;3.10;99.90
25550;DHT22;13444;50.562;7.262;2023-01-24T06:42:19;3.10;99.90
25550;DHT22;13444;50.562;7.262;2023-01-24T06:44:45;3.10;99.90
25550;DHT22;13444;50.562;7.262;2023-01-24T06:47:11;3.10;99.90
25550;DHT22;13444;50.562;7.262;2023-01-24T06:49:38;3.10;99.90
25550;DHT22;13444;50.562;7.262;2023-01-24T06:52:04;3.10;99.90
25550;DHT22;13444;50.562;7.262;2023-01-24T06:54:30;3.10;99.90
25550;DHT22;13444;50.562;7.262;2023-01-24T06:56:55;3.10;99.90
25550;DHT22;13444;50.562;7.262;2023-01-24T06:59:21;3.10;99.90
25550;DHT22;13444;50.562;7.262;2023-01-24T07:01:49;3.10;99.90
25550;DHT22;13444;50.562;7.262;2023-01-24T07:04:14;3.10;99.90
25550;DHT22;13444;50.562;7.262;2023-01-24T07:06:40;3.10;99.90
25550;DHT22;13444;50.562;7.262;2023-01-24T07:09:05;3.10;99.90
25550;DHT22;13444;50.562;7.262;2023-01-24T07:11:31;3.10;99.90
25550;DHT22;13444;50.562;7.262;2023-01-24T07:13:57;3.10;99.90
25550;DHT22;13444;50.562;7.262;2023-01-24T07:16:22;3.10;99.90
25550;DHT22;13444;50.562;7.262;2023-01-24T07:18:48;3.10;99.90
25550;DHT22;13444;50.562;7.262;2023-01-24T07:21:14;3.10;99.90
25550;DHT22;13444;50.562;7.262;2023-01-24T07:23:43;3.10;99.90
25550;DHT22;13444;50.562;7.262;2023-01-24T07:26:10;3.10;99.90
25550;DHT22;13444;50.562;7.262;2023-01-24T07:28:37;3.10;99.90
25550;DHT22;13444;50.562;7.262;2023-01-24T07:31:02;3.10;99.90
25550;DHT22;13444;50.562;7.262;2023-01-24T07:33:28;3.10;99.90
25550;DHT22;13444;50.562;7.262;2023-01-24T07:35:54;3.10;99.90
25550;DHT22;13444;50.562;7.262;2023-01-24T07:38:20;3.10;99.90
25550;DHT22;13444;50.562;7.262;2023-01-24T07:40:46;3.20;99.90
25550;DHT22;13444;50.562;7.262;2023-01-24T07:43:11;3.20;99.90
25550;DHT22;13444;50.562;7.262;2023-01-24T07:45:37;3.20;99.90
25550;DHT22;13444;50.562;7.262;2023-01-24T07:48:04;3.10;99.90
25550;DHT22;13444;50.562;7.262;2023-01-24T07:50:30;3.10;99.90
25550;DHT22;13444;50.562;7.262;2023-01-24T07:52:57;3.10;99.90
25550;DHT22;13444;50.562;7.262;2023-01-24T07:55:23;3.10;99.90
25550;DHT22;13444;50.562;7.262;2023-01-24T07:57:49;3.10;99.90
25550;DHT22;13444;50.562;7.262;2023-01-24T08:00:15;3.20;99.90
25550;DHT22;13444;50.562;7.262;2023-01-24T08:02:42;3.10;99.90
25550;DHT22;13444;50.562;7.262;2023-01-24T08:05:08;3.10;99.90
25550;DHT22;13444;50.562;7.262;2023-01-24T08:07:34;3.20;99.90
25550;DHT22;13444;50.562;7.262;2023-01-24T08:09:59;3.20;99.90
25550;DHT22;13444;50.562;7.262;2023-01-24T08:12:25;3.20;99.90
25550;DHT22;13444;50.562;7.262;2023-01-24T08:14:50;3.20;99.90
25550;DHT22;13444;50.562;7.262;2023-01-24T08:17:16;3.30;99.90
25550;DHT22;13444;50.562;7.262;2023-01-24T08:19:42;3.30;99.90
25550;DHT22;13444;50.562;7.262;2023-01-24T08:22:07;3.30;99.90
25550;DHT22;13444;50.562;7.262;2023-01-24T08:24:33;3.30;99.90
25550;DHT22;13444;50.562;7.262;2023-01-24T08:27:00;3.30;99.90
25550;DHT22;13444;50.562;7.262;2023-01-24T08:29:26;3.30;99.90
25550;DHT22;13444;50.562;7.262;2023-01-24T08:31:51;3.30;99.90
25550;DHT22;13444;50.562;7.262;2023-01-24T08:34:17;3.30;99.90
25550;DHT22;13444;50.562;7.262;2023-01-24T08:36:43;3.30;99.90
25550;DHT22;13444;50.562;7.262;2023-01-24T08:39:08;3.30;99.90
25550;DHT22;13444;50.562;7.262;2023-01-24T08:41:34;3.30;99.90
25550;DHT22;13444;50.562;7.262;2023-01-24T08:44:00;3.40;99.90
25550;DHT22;13444;50.562;7.262;2023-01-24T08:46:28;3.40;99.90
25550;DHT22;13444;50.562;7.262;2023-01-24T08:48:53;3.30;99.90
25550;DHT22;13444;50.562;7.262;2023-01-24T08:51:19;3.40;99.90
25550;DHT22;13444;50.562;7.262;2023-01-24T08:53:44;3.40;99.90
25550;DHT22;13444;50.562;7.262;2023-01-24T08:56:10;3.40;99.90
25550;DHT22;13444;50.562;7.262;2023-01-24T08:58:36;3.40;99.90
25550;DHT22;13444;50.562;7.262;2023-01-24T09:01:08;3.40;99.90
25550;DHT22;13444;50.562;7.262;2023-01-24T09:03:34;3.40;99.90
25550;DHT22;13444;50.562;7.262;2023-01-24T09:05:59;3.40;99.90
25550;DHT22;13444;50.562;7.262;2023-01-24T09:08:25;3.40;99.90
25550;DHT22;13444;50.562;7.262;2023-01-24T09:10:51;3.50;99.90
25550;DHT22;13444;50.562;7.262;2023-01-24T09:13:16;3.50;99.90
25550;DHT22;13444;50.562;7.262;2023-01-24T09:15:42;3.50;99.90
25550;DHT22;13444;50.562;7.262;2023-01-24T09:18:08;3.50;99.90
25550;DHT22;13444;50.562;7.262;2023-01-24T09:20:33;3.50;99.90
25550;DHT22;13444;50.562;7.262;2023-01-24T09:23:00;3.50;99.90
25550;DHT22;13444;50.562;7.262;2023-01-24T09:25:26;3.60;99.90
25550;DHT22;13444;50.562;7.262;2023-01-24T09:27:55;3.60;99.90
25550;DHT22;13444;50.562;7.262;2023-01-24T09:30:22;3.60;99.90
25550;DHT22;13444;50.562;7.262;2023-01-24T09:32:48;3.60;99.90
25550;DHT22;13444;50.562;7.262;2023-01-24T09:35:14;3.60;99.90
25550;DHT22;13444;50.562;7.262;2023-01-24T09:37:39;3.70;99.90
25550;DHT22;13444;50.562;7.262;2023-01-24T09:42:54;3.70;99.90
25550;DHT22;13444;50.562;7.262;2023-01-24T09:45:34;3.70;99.90
25550;DHT22;13444;50.562;7.262;2023-01-24T09:48:04;3.70;99.90
25550;DHT22;13444;50.562;7.262;2023-01-24T09:50:46;3.70;99.90
25550;DHT22;13444;50.562;7.262;2023-01-24T09:53:52;3.80;99.90
25550;DHT22;13444;50.562;7.262;2023-01-24T09:56:24;3.80;99.90
25550;DHT22;13444;50.562;7.262;2023-01-24T09:59:05;3.80;99.90
25550;DHT22;13444;50.562;7.262;2023-01-24T10:01:36;3.80;99.90
25550;DHT22;13444;50.562;7.262;2023-01-24T10:04:05;3.80;99.90
25550;DHT22;13444;50.562;7.262;2023-01-24T10:06:34;3.80;99.90
25550;DHT22;13444;50.562;7.262;2023-01-24T10:09:08;3.80;99.90
25550;DHT22;13444;50.562;7.262;2023-01-24T10:23:18;3.70;99.90
25550;DHT22;13444;50.562;7.262;2023-01-24T10:25:48;3.70;99.90
25550;DHT22;13444;50.562;7.262;2023-01-24T10:28:22;3.80;99.90
25550;DHT22;13444;50.562;7.262;2023-01-24T10:31:11;3.80;99.90
25550;DHT22;13444;50.562;7.262;2023-01-24T10:33:44;3.80;99.90
25550;DHT22;13444;50.562;7.262;2023-01-24T10:36:18;3.70;99.90
25550;DHT22;13444;50.562;7.262;2023-01-24T10:38:44;3.60;99.90
25550;DHT22;13444;50.562;7.262;2023-01-24T10:43:50;3.70;99.90
25550;DHT22;13444;50.562;7.262;2023-01-24T10:49:09;3.70;99.90
25550;DHT22;13444;50.562;7.262;2023-01-24T10:51:37;3.80;99.90
25550;DHT22;13444;50.562;7.262;2023-01-24T10:54:03;3.80;99.90
25550;DHT22;13444;50.562;7.262;2023-01-24T10:56:29;3.80;99.90
25550;DHT22;13444;50.562;7.262;2023-01-24T10:59:06;3.70;99.90
25550;DHT22;13444;50.562;7.262;2023-01-24T11:01:39;3.90;99.90
25550;DHT22;13444;50.562;7.262;2023-01-24T11:04:27;3.80;99.90
25550;DHT22;13444;50.562;7.262;2023-01-24T11:06:53;3.90;99.90
25550;DHT22;13444;50.562;7.262;2023-01-24T11:09:22;3.90;99.90
25550;DHT22;13444;50.562;7.262;2023-01-24T11:11:53;3.90;99.90
25550;DHT22;13444;50.562;7.262;2023-01-24T11:16:51;4.00;99.90
25550;DHT22;13444;50.562;7.262;2023-01-24T11:19:26;4.00;99.90
25550;DHT22;13444;50.562;7.262;2023-01-24T11:21:56;4.10;99.90
25550;DHT22;13444;50.562;7.262;2023-01-24T11:24:22;4.00;99.90
25550;DHT22;13444;50.562;7.262;2023-01-24T11:26:55;3.90;99.90
25550;DHT22;13444;50.562;7.262;2023-01-24T11:29:22;4.00;99.90
25550;DHT22;13444;50.562;7.262;2023-01-24T11:32:36;3.90;99.90
25550;DHT22;13444;50.562;7.262;2023-01-24T11:35:07;4.00;99.90
25550;DHT22;13444;50.562;7.262;2023-01-24T11:37:45;4.00;99.90
25550;DHT22;13444;50.562;7.262;2023-01-24T11:40:38;4.00;99.90
25550;DHT22;13444;50.562;7.262;2023-01-24T11:43:30;4.00;99.90
25550;DHT22;13444;50.562;7.262;2023-01-24T11:46:36;4.00;99.90
25550;DHT22;13444;50.562;7.262;2023-01-24T11:51:53;4.00;99.90
25550;DHT22;13444;50.562;7.262;2023-01-24T11:54:33;4.10;99.90
25550;DHT22;13444;50.562;7.262;2023-01-24T11:57:12;4.10;99.90
25550;DHT22;13444;50.562;7.262;2023-01-24T11:59:53;4.10;99.90
25550;DHT22;13444;50.562;7.262;2023-01-24T12:10:52;4.10;99.90
25550;DHT22;13444;50.562;7.262;2023-01-24T12:13:50;4.10;99.90
25550;DHT22;13444;50.562;7.262;2023-01-24T12:16:47;4.10;99.90
25550;DHT22;13444;50.562;7.262;2023-01-24T12:22:16;4.10;99.90
25550;DHT22;13444;50.562;7.262;2023-01-24T12:24:45;4.10;99.90
25550;DHT22;13444;50.562;7.262;2023-01-24T12:27:15;4.00;99.90
25550;DHT22;13444;50.562;7.262;2023-01-24T12:32:31;4.00;99.90
25550;DHT22;13444;50.562;7.262;2023-01-24T12:38:11;4.00;99.90
25550;DHT22;13444;50.562;7.262;2023-01-24T12:41:09;4.10;99.90
25550;DHT22;13444;50.562;7.262;2023-01-24T12:43:58;3.90;99.90
25550;DHT22;13444;50.562;7.262;2023-01-24T12:49:06;3.90;99.90
25550;DHT22;13444;50.562;7.262;2023-01-24T12:51:42;3.90;99.90
25550;DHT22;13444;50.562;7.262;2023-01-24T12:54:16;3.90;99.90
25550;DHT22;13444;50.562;7.262;2023-01-24T12:59:23;3.90;99.90
25550;DHT22;13444;50.562;7.262;2023-01-24T13:05:16;3.90;99.90
25550;DHT22;13444;50.562;7.262;2023-01-24T13:13:43;3.90;99.90
25550;DHT22;13444;50.562;7.262;2023-01-24T13:16:25;3.90;99.90
25550;DHT22;13444;50.562;7.262;2023-01-24T13:19:06;3.90;99.90
25550;DHT22;13444;50.562;7.262;2023-01-24T13:21:45;3.90;99.90
25550;DHT22;13444;50.562;7.262;2023-01-24T13:24:29;3.90;99.90
25550;DHT22;13444;50.562;7.262;2023-01-24T13:29:42;3.90;99.90
25550;DHT22;13444;50.562;7.262;2023-01-24T13:32:14;3.90;99.90
25550;DHT22;13444;50.562;7.262;2023-01-24T13:34:47;3.90;99.90
25550;DHT22;13444;50.562;7.262;2023-01-24T13:37:21;4.00;99.90
25550;DHT22;13444;50.562;7.262;2023-01-24T13:39:59;3.90;99.90
25550;DHT22;13444;50.562;7.262;2023-01-24T13:42:36;4.00;99.90
25550;DHT22;13444;50.562;7.262;2023-01-24T13:48:46;4.00;99.90
25550;DHT22;13444;50.562;7.262;2023-01-24T13:53:57;3.90;99.90
25550;DHT22;13444;50.562;7.262;2023-01-24T13:56:23;3.80;99.90
25550;DHT22;13444;50.562;7.262;2023-01-24T13:58:51;3.90;99.90
25550;DHT22;13444;50.562;7.262;2023-01-24T14:01:17;3.90;99.90
25550;DHT22;13444;50.562;7.262;2023-01-24T14:03:54;3.90;99.90
25550;DHT22;13444;50.562;7.262;2023-01-24T14:06:20;3.90;99.90
25550;DHT22;13444;50.562;7.262;2023-01-24T14:08:49;3.90;99.90
25550;DHT22;13444;50.562;7.262;2023-01-24T14:11:24;3.90;99.90
25550;DHT22;13444;50.562;7.262;2023-01-24T14:13:59;3.90;99.90
25550;DHT22;13444;50.562;7.262;2023-01-24T14:21:59;3.90;99.90
25550;DHT22;13444;50.562;7.262;2023-01-24T14:24:56;3.80;99.90
25550;DHT22;13444;50.562;7.262;2023-01-24T14:27:33;3.80;99.90
25550;DHT22;13444;50.562;7.262;2023-01-24T14:32:47;3.80;99.90
25550;DHT22;13444;50.562;7.262;2023-01-24T14:35:21;3.80;99.90
25550;DHT22;13444;50.562;7.262;2023-01-24T14:37:49;3.80;99.90
25550;DHT22;13444;50.562;7.262;2023-01-24T14:40:26;3.80;99.90
25550;DHT22;13444;50.562;7.262;2023-01-24T14:43:01;3.90;99.90
25550;DHT22;13444;50.562;7.262;2023-01-24T14:45:29;3.90;99.90
25550;DHT22;13444;50.562;7.262;2023-01-24T14:47:56;3.90;99.90
25550;DHT22;13444;50.562;7.262;2023-01-24T14:50:26;3.90;99.90
25550;DHT22;13444;50.562;7.262;2023-01-24T14:52:52;3.90;99.90
25550;DHT22;13444;50.562;7.262;2023-01-24T14:57:53;3.90;99.90
25550;DHT22;13444;50.562;7.262;2023-01-24T15:00:19;3.80;99.90
25550;DHT22;13444;50.562;7.262;2023-01-24T15:03:00;3.80;99.90
25550;DHT22;13444;50.562;7.262;2023-01-24T15:05:36;3.80;99.90
25550;DHT22;13444;50.562;7.262;2023-01-24T15:08:04;3.80;99.90
25550;DHT22;13444;50.562;7.262;2023-01-24T15:10:34;3.80;99.90
25550;DHT22;13444;50.562;7.262;2023-01-24T15:13:03;3.80;99.90
25550;DHT22;13444;50.562;7.262;2023-01-24T15:15:29;3.80;99.90
25550;DHT22;13444;50.562;7.262;2023-01-24T15:18:07;3.80;99.90
25550;DHT22;13444;50.562;7.262;2023-01-24T15:20:46;3.70;99.90
25550;DHT22;13444;50.562;7.262;2023-01-24T15:23:28;3.70;99.90
25550;DHT22;13444;50.562;7.262;2023-01-24T15:25:54;3.70;99.90
25550;DHT22;13444;50.562;7.262;2023-01-24T15:28:27;3.70;99.90
25550;DHT22;13444;50.562;7.262;2023-01-24T15:30:56;3.70;99.90
25550;DHT22;13444;50.562;7.262;2023-01-24T15:33:22;3.60;99.90
25550;DHT22;13444;50.562;7.262;2023-01-24T15:35:48;3.70;99.90
25550;DHT22;13444;50.562;7.262;2023-01-24T15:38:28;3.70;99.90
25550;DHT22;13444;50.562;7.262;2023-01-24T15:41:12;3.70;99.90
25550;DHT22;13444;50.562;7.262;2023-01-24T15:44:02;3.70;99.90
25550;DHT22;13444;50.562;7.262;2023-01-24T15:49:36;3.60;99.90
25550;DHT22;13444;50.562;7.262;2023-01-24T15:54:30;3.50;99.90
25550;DHT22;13444;50.562;7.262;2023-01-24T15:57:04;3.50;99.90
25550;DHT22;13444;50.562;7.262;2023-01-24T15:59:31;3.40;99.90
25550;DHT22;13444;50.562;7.262;2023-01-24T16:01:58;3.50;99.90
25550;DHT22;13444;50.562;7.262;2023-01-24T16:04:24;3.50;99.90
25550;DHT22;13444;50.562;7.262;2023-01-24T16:06:50;3.50;99.90
25550;DHT22;13444;50.562;7.262;2023-01-24T16:09:15;3.50;99.90
25550;DHT22;13444;50.562;7.262;2023-01-24T16:11:47;3.40;99.90
25550;DHT22;13444;50.562;7.262;2023-01-24T16:14:17;3.40;99.90
25550;DHT22;13444;50.562;7.262;2023-01-24T16:16:44;3.40;99.90
25550;DHT22;13444;50.562;7.262;2023-01-24T16:19:20;3.40;99.90
25550;DHT22;13444;50.562;7.262;2023-01-24T16:21:47;3.40;99.90
25550;DHT22;13444;50.562;7.262;2023-01-24T16:24:13;3.40;99.90
25550;DHT22;13444;50.562;7.262;2023-01-24T16:26:43;3.40;99.90
25550;DHT22;13444;50.562;7.262;2023-01-24T16:29:32;3.40;99.90
25550;DHT22;13444;50.562;7.262;2023-01-24T16:31:58;3.40;99.90
25550;DHT22;13444;50.562;7.262;2023-01-24T16:34:24;3.30;99.90
25550;DHT22;13444;50.562;7.262;2023-01-24T16:36:49;3.30;99.90
25550;DHT22;13444;50.562;7.262;2023-01-24T16:39:20;3.30;99.90
25550;DHT22;13444;50.562;7.262;2023-01-24T16:41:47;3.30;99.90
25550;DHT22;13444;50.562;7.262;2023-01-24T16:44:13;3.30;99.90
25550;DHT22;13444;50.562;7.262;2023-01-24T16:46:39;3.30;99.90
25550;DHT22;13444;50.562;7.262;2023-01-24T16:49:05;3.30;99.90
25550;DHT22;13444;50.562;7.262;2023-01-24T16:51:31;3.30;99.90
25550;DHT22;13444;50.562;7.262;2023-01-24T16:53:57;3.30;99.90
25550;DHT22;13444;50.562;7.262;2023-01-24T16:56:23;3.30;99.90
25550;DHT22;13444;50.562;7.262;2023-01-24T16:58:54;3.30;99.90
25550;DHT22;13444;50.562;7.262;2023-01-24T17:01:19;3.20;99.90
25550;DHT22;13444;50.562;7.262;2023-01-24T17:03:45;3.20;99.90
25550;DHT22;13444;50.562;7.262;2023-01-24T17:06:13;3.20;99.90
25550;DHT22;13444;50.562;7.262;2023-01-24T17:08:39;3.20;99.90
25550;DHT22;13444;50.562;7.262;2023-01-24T17:11:07;3.20;99.90
25550;DHT22;13444;50.562;7.262;2023-01-24T17:13:34;3.20;99.90
25550;DHT22;13444;50.562;7.262;2023-01-24T17:16:04;3.20;99.90
25550;DHT22;13444;50.562;7.262;2023-01-24T17:18:31;3.10;99.90
25550;DHT22;13444;50.562;7.262;2023-01-24T17:21:00;3.20;99.90
25550;DHT22;13444;50.562;7.262;2023-01-24T17:23:26;3.20;99.90
25550;DHT22;13444;50.562;7.262;2023-01-24T17:26:02;3.20;99.90
25550;DHT22;13444;50.562;7.262;2023-01-24T17:28:28;3.20;99.90
25550;DHT22;13444;50.562;7.262;2023-01-24T17:30:54;3.20;99.90
25550;DHT22;13444;50.562;7.262;2023-01-24T17:33:19;3.20;99.90
25550;DHT22;13444;50.562;7.262;2023-01-24T17:35:45;3.20;99.90
25550;DHT22;13444;50.562;7.262;2023-01-24T17:38:10;3.20;99.90
25550;DHT22;13444;50.562;7.262;2023-01-24T17:40:37;3.20;99.90
25550;DHT22;13444;50.562;7.262;2023-01-24T17:43:02;3.30;99.90